AEROCLUB DE PEZENAS
AEROPORT DE BEZIERS CAP D'AGDE
34420 PORTIRAGNES
TEL: 04.67.01.57.94
contact@aeroclub-pezenas.com
WINDOW MODE | FULLSCREEN MODE
2017/03/30 12:00 LFMU 301200Z AUTO 10009KT 9999 NSC 20/05 Q1025 NOSIG
DOCUMENTS OFFICIELS

REGLEMENT INTERIEUR STATUTS AGO 28/06/2015 COMPTE RENDU DU COMMITE DIRECTEUR - 03/04/2016